sensor_id;sensor_type;location;lat;lon;timestamp;temperature;humidity
24224;DHT22;12359;49.716;9.212;2024-01-30T00:01:52;1.10;65.10
24224;DHT22;12359;49.716;9.212;2024-01-30T00:04:18;1.10;66.30
24224;DHT22;12359;49.716;9.212;2024-01-30T00:06:44;1.10;63.70
24224;DHT22;12359;49.716;9.212;2024-01-30T00:09:10;1.10;62.10
24224;DHT22;12359;49.716;9.212;2024-01-30T00:11:37;1.10;65.80
24224;DHT22;12359;49.716;9.212;2024-01-30T00:14:03;1.10;69.20
24224;DHT22;12359;49.716;9.212;2024-01-30T00:16:29;1.10;71.10
24224;DHT22;12359;49.716;9.212;2024-01-30T00:18:55;1.10;72.10
24224;DHT22;12359;49.716;9.212;2024-01-30T00:21:21;1.10;71.00
24224;DHT22;12359;49.716;9.212;2024-01-30T00:23:47;1.10;71.50
24224;DHT22;12359;49.716;9.212;2024-01-30T00:26:13;1.10;71.40
24224;DHT22;12359;49.716;9.212;2024-01-30T00:28:40;1.10;70.70
24224;DHT22;12359;49.716;9.212;2024-01-30T00:31:06;1.10;70.10
24224;DHT22;12359;49.716;9.212;2024-01-30T00:33:32;1.10;71.10
24224;DHT22;12359;49.716;9.212;2024-01-30T00:35:57;1.10;67.60
24224;DHT22;12359;49.716;9.212;2024-01-30T00:38:23;1.10;68.30
24224;DHT22;12359;49.716;9.212;2024-01-30T00:40:49;1.10;68.40
24224;DHT22;12359;49.716;9.212;2024-01-30T00:43:15;1.10;70.20
24224;DHT22;12359;49.716;9.212;2024-01-30T00:45:41;1.20;70.00
24224;DHT22;12359;49.716;9.212;2024-01-30T00:48:08;1.10;66.80
24224;DHT22;12359;49.716;9.212;2024-01-30T00:50:34;1.20;70.30
24224;DHT22;12359;49.716;9.212;2024-01-30T00:52:59;1.20;67.50
24224;DHT22;12359;49.716;9.212;2024-01-30T00:55:25;1.20;69.40
24224;DHT22;12359;49.716;9.212;2024-01-30T00:57:51;1.20;70.30
24224;DHT22;12359;49.716;9.212;2024-01-30T01:00:16;1.20;67.30
24224;DHT22;12359;49.716;9.212;2024-01-30T01:02:43;1.10;65.70
24224;DHT22;12359;49.716;9.212;2024-01-30T01:05:09;1.10;64.80
24224;DHT22;12359;49.716;9.212;2024-01-30T01:07:34;1.00;65.90
24224;DHT22;12359;49.716;9.212;2024-01-30T01:10:00;1.00;69.30
24224;DHT22;12359;49.716;9.212;2024-01-30T01:12:26;1.00;71.00
24224;DHT22;12359;49.716;9.212;2024-01-30T01:14:51;1.10;73.80
24224;DHT22;12359;49.716;9.212;2024-01-30T01:17:17;1.10;70.70
24224;DHT22;12359;49.716;9.212;2024-01-30T01:19:44;1.00;67.80
24224;DHT22;12359;49.716;9.212;2024-01-30T01:22:10;1.00;69.90
24224;DHT22;12359;49.716;9.212;2024-01-30T01:24:36;0.90;74.10
24224;DHT22;12359;49.716;9.212;2024-01-30T01:30:24;0.90;73.80
24224;DHT22;12359;49.716;9.212;2024-01-30T01:32:51;1.00;76.20
24224;DHT22;12359;49.716;9.212;2024-01-30T01:35:21;1.00;74.90
24224;DHT22;12359;49.716;9.212;2024-01-30T01:37:48;1.00;70.00
24224;DHT22;12359;49.716;9.212;2024-01-30T01:40:21;1.00;66.30
24224;DHT22;12359;49.716;9.212;2024-01-30T01:42:47;0.90;64.90
24224;DHT22;12359;49.716;9.212;2024-01-30T01:45:13;0.90;65.20
24224;DHT22;12359;49.716;9.212;2024-01-30T01:47:39;0.80;65.60
24224;DHT22;12359;49.716;9.212;2024-01-30T01:50:05;0.80;71.10
24224;DHT22;12359;49.716;9.212;2024-01-30T01:52:31;0.80;73.50
24224;DHT22;12359;49.716;9.212;2024-01-30T01:54:57;0.80;72.00
24224;DHT22;12359;49.716;9.212;2024-01-30T01:57:23;0.80;72.90
24224;DHT22;12359;49.716;9.212;2024-01-30T01:59:49;0.80;73.10
24224;DHT22;12359;49.716;9.212;2024-01-30T02:02:16;0.80;72.70
24224;DHT22;12359;49.716;9.212;2024-01-30T02:04:43;0.80;71.60
24224;DHT22;12359;49.716;9.212;2024-01-30T02:07:09;0.80;73.00
24224;DHT22;12359;49.716;9.212;2024-01-30T02:09:35;0.80;75.50
24224;DHT22;12359;49.716;9.212;2024-01-30T02:12:01;0.80;72.60
24224;DHT22;12359;49.716;9.212;2024-01-30T02:14:27;0.90;77.90
24224;DHT22;12359;49.716;9.212;2024-01-30T02:16:53;0.90;77.10
24224;DHT22;12359;49.716;9.212;2024-01-30T02:19:18;0.90;73.90
24224;DHT22;12359;49.716;9.212;2024-01-30T02:21:46;0.90;72.10
24224;DHT22;12359;49.716;9.212;2024-01-30T02:24:12;0.80;66.10
24224;DHT22;12359;49.716;9.212;2024-01-30T02:26:37;0.80;68.30
24224;DHT22;12359;49.716;9.212;2024-01-30T02:29:03;0.80;72.90
24224;DHT22;12359;49.716;9.212;2024-01-30T02:31:28;0.70;71.70
24224;DHT22;12359;49.716;9.212;2024-01-30T02:33:54;0.70;70.70
24224;DHT22;12359;49.716;9.212;2024-01-30T02:36:20;0.70;72.00
24224;DHT22;12359;49.716;9.212;2024-01-30T02:38:45;0.70;71.40
24224;DHT22;12359;49.716;9.212;2024-01-30T02:41:12;0.70;72.40
24224;DHT22;12359;49.716;9.212;2024-01-30T02:43:37;0.70;73.50
24224;DHT22;12359;49.716;9.212;2024-01-30T02:46:03;0.70;77.10
24224;DHT22;12359;49.716;9.212;2024-01-30T02:48:29;0.80;74.80
24224;DHT22;12359;49.716;9.212;2024-01-30T02:50:54;0.70;72.70
24224;DHT22;12359;49.716;9.212;2024-01-30T02:53:20;0.70;73.10
24224;DHT22;12359;49.716;9.212;2024-01-30T02:55:46;0.80;77.10
24224;DHT22;12359;49.716;9.212;2024-01-30T02:58:11;0.80;73.40
24224;DHT22;12359;49.716;9.212;2024-01-30T03:00:37;0.80;72.50
24224;DHT22;12359;49.716;9.212;2024-01-30T03:03:03;0.80;71.90
24224;DHT22;12359;49.716;9.212;2024-01-30T03:05:28;0.80;70.60
24224;DHT22;12359;49.716;9.212;2024-01-30T03:07:54;0.80;71.70
24224;DHT22;12359;49.716;9.212;2024-01-30T03:10:20;0.80;67.90
24224;DHT22;12359;49.716;9.212;2024-01-30T03:12:45;0.70;68.20
24224;DHT22;12359;49.716;9.212;2024-01-30T03:15:11;0.70;68.40
24224;DHT22;12359;49.716;9.212;2024-01-30T03:17:37;0.60;69.20
24224;DHT22;12359;49.716;9.212;2024-01-30T03:20:04;0.60;68.90
24224;DHT22;12359;49.716;9.212;2024-01-30T03:22:31;0.60;74.30
24224;DHT22;12359;49.716;9.212;2024-01-30T03:24:57;0.60;76.00
24224;DHT22;12359;49.716;9.212;2024-01-30T03:27:22;0.60;77.50
24224;DHT22;12359;49.716;9.212;2024-01-30T03:29:48;0.60;79.50
24224;DHT22;12359;49.716;9.212;2024-01-30T03:32:14;0.60;78.10
24224;DHT22;12359;49.716;9.212;2024-01-30T03:34:39;0.60;76.00
24224;DHT22;12359;49.716;9.212;2024-01-30T03:37:05;0.60;76.20
24224;DHT22;12359;49.716;9.212;2024-01-30T03:39:31;0.60;76.20
24224;DHT22;12359;49.716;9.212;2024-01-30T03:41:56;0.60;76.10
24224;DHT22;12359;49.716;9.212;2024-01-30T03:44:22;0.60;76.30
24224;DHT22;12359;49.716;9.212;2024-01-30T03:46:47;0.60;75.00
24224;DHT22;12359;49.716;9.212;2024-01-30T03:49:13;0.60;75.30
24224;DHT22;12359;49.716;9.212;2024-01-30T03:51:39;0.60;76.20
24224;DHT22;12359;49.716;9.212;2024-01-30T03:54:04;0.60;74.20
24224;DHT22;12359;49.716;9.212;2024-01-30T03:56:30;0.60;69.10
24224;DHT22;12359;49.716;9.212;2024-01-30T03:58:56;0.60;70.00
24224;DHT22;12359;49.716;9.212;2024-01-30T04:01:22;0.50;71.90
24224;DHT22;12359;49.716;9.212;2024-01-30T04:03:48;0.50;73.00
24224;DHT22;12359;49.716;9.212;2024-01-30T04:06:13;0.60;75.50
24224;DHT22;12359;49.716;9.212;2024-01-30T04:08:39;0.50;73.90
24224;DHT22;12359;49.716;9.212;2024-01-30T04:11:05;0.60;76.60
24224;DHT22;12359;49.716;9.212;2024-01-30T04:13:32;0.60;77.70
24224;DHT22;12359;49.716;9.212;2024-01-30T04:15:59;0.60;77.50
24224;DHT22;12359;49.716;9.212;2024-01-30T04:18:27;0.70;76.40
24224;DHT22;12359;49.716;9.212;2024-01-30T04:20:52;0.60;73.50
24224;DHT22;12359;49.716;9.212;2024-01-30T04:23:18;0.60;73.30
24224;DHT22;12359;49.716;9.212;2024-01-30T04:25:44;0.70;74.70
24224;DHT22;12359;49.716;9.212;2024-01-30T04:28:10;0.60;73.30
24224;DHT22;12359;49.716;9.212;2024-01-30T04:30:37;0.60;73.10
24224;DHT22;12359;49.716;9.212;2024-01-30T04:33:04;0.60;70.50
24224;DHT22;12359;49.716;9.212;2024-01-30T04:35:29;0.60;71.50
24224;DHT22;12359;49.716;9.212;2024-01-30T04:37:55;0.50;70.30
24224;DHT22;12359;49.716;9.212;2024-01-30T04:40:21;0.50;68.30
24224;DHT22;12359;49.716;9.212;2024-01-30T04:42:47;0.50;70.00
24224;DHT22;12359;49.716;9.212;2024-01-30T04:45:12;0.40;70.90
24224;DHT22;12359;49.716;9.212;2024-01-30T04:47:38;0.40;71.90
24224;DHT22;12359;49.716;9.212;2024-01-30T04:50:07;0.40;72.70
24224;DHT22;12359;49.716;9.212;2024-01-30T04:52:34;0.30;73.50
24224;DHT22;12359;49.716;9.212;2024-01-30T04:55:00;0.30;74.50
24224;DHT22;12359;49.716;9.212;2024-01-30T04:57:25;0.30;76.60
24224;DHT22;12359;49.716;9.212;2024-01-30T04:59:51;0.30;78.90
24224;DHT22;12359;49.716;9.212;2024-01-30T05:02:17;0.40;80.00
24224;DHT22;12359;49.716;9.212;2024-01-30T05:04:42;0.40;79.10
24224;DHT22;12359;49.716;9.212;2024-01-30T05:07:08;0.40;79.50
24224;DHT22;12359;49.716;9.212;2024-01-30T05:09:34;0.50;78.40
24224;DHT22;12359;49.716;9.212;2024-01-30T05:11:59;0.40;75.70
24224;DHT22;12359;49.716;9.212;2024-01-30T05:14:25;0.40;73.70
24224;DHT22;12359;49.716;9.212;2024-01-30T05:16:51;0.40;73.30
24224;DHT22;12359;49.716;9.212;2024-01-30T05:19:16;0.40;73.10
24224;DHT22;12359;49.716;9.212;2024-01-30T05:21:42;0.40;75.20
24224;DHT22;12359;49.716;9.212;2024-01-30T05:24:08;0.40;78.20
24224;DHT22;12359;49.716;9.212;2024-01-30T05:26:35;0.40;78.80
24224;DHT22;12359;49.716;9.212;2024-01-30T05:29:01;0.40;77.30
24224;DHT22;12359;49.716;9.212;2024-01-30T05:31:27;0.40;73.70
24224;DHT22;12359;49.716;9.212;2024-01-30T05:33:54;0.40;73.10
24224;DHT22;12359;49.716;9.212;2024-01-30T05:36:20;0.40;75.60
24224;DHT22;12359;49.716;9.212;2024-01-30T05:38:46;0.40;76.10
24224;DHT22;12359;49.716;9.212;2024-01-30T05:41:11;0.40;73.90
24224;DHT22;12359;49.716;9.212;2024-01-30T05:43:37;0.30;72.80
24224;DHT22;12359;49.716;9.212;2024-01-30T05:46:03;0.30;74.80
24224;DHT22;12359;49.716;9.212;2024-01-30T05:48:29;0.30;71.30
24224;DHT22;12359;49.716;9.212;2024-01-30T05:50:54;0.30;71.70
24224;DHT22;12359;49.716;9.212;2024-01-30T05:53:20;0.30;73.30
24224;DHT22;12359;49.716;9.212;2024-01-30T05:55:46;0.30;74.50
24224;DHT22;12359;49.716;9.212;2024-01-30T05:58:11;0.40;72.90
24224;DHT22;12359;49.716;9.212;2024-01-30T06:00:37;0.30;73.20
24224;DHT22;12359;49.716;9.212;2024-01-30T06:03:03;0.30;73.20
24224;DHT22;12359;49.716;9.212;2024-01-30T06:05:28;0.30;71.70
24224;DHT22;12359;49.716;9.212;2024-01-30T06:07:54;0.30;73.20
24224;DHT22;12359;49.716;9.212;2024-01-30T06:10:20;0.30;70.20
24224;DHT22;12359;49.716;9.212;2024-01-30T06:12:45;0.20;69.70
24224;DHT22;12359;49.716;9.212;2024-01-30T06:15:11;0.20;68.00
24224;DHT22;12359;49.716;9.212;2024-01-30T06:17:38;0.20;72.80
24224;DHT22;12359;49.716;9.212;2024-01-30T06:20:05;0.20;73.80
24224;DHT22;12359;49.716;9.212;2024-01-30T06:22:30;0.30;72.40
24224;DHT22;12359;49.716;9.212;2024-01-30T06:24:56;0.20;69.90
24224;DHT22;12359;49.716;9.212;2024-01-30T06:27:22;0.20;72.10
24224;DHT22;12359;49.716;9.212;2024-01-30T06:29:47;0.20;71.70
24224;DHT22;12359;49.716;9.212;2024-01-30T06:32:13;0.20;73.00
24224;DHT22;12359;49.716;9.212;2024-01-30T06:34:40;0.20;74.10
24224;DHT22;12359;49.716;9.212;2024-01-30T06:37:05;0.20;73.70
24224;DHT22;12359;49.716;9.212;2024-01-30T06:39:31;0.20;73.80
24224;DHT22;12359;49.716;9.212;2024-01-30T06:41:57;0.20;74.90
24224;DHT22;12359;49.716;9.212;2024-01-30T06:44:23;0.20;76.30
24224;DHT22;12359;49.716;9.212;2024-01-30T06:46:48;0.20;76.10
24224;DHT22;12359;49.716;9.212;2024-01-30T06:49:14;0.30;76.30
24224;DHT22;12359;49.716;9.212;2024-01-30T06:51:39;0.30;75.30
24224;DHT22;12359;49.716;9.212;2024-01-30T06:54:05;0.30;74.30
24224;DHT22;12359;49.716;9.212;2024-01-30T06:56:31;0.30;73.10
24224;DHT22;12359;49.716;9.212;2024-01-30T06:58:56;0.30;71.60
24224;DHT22;12359;49.716;9.212;2024-01-30T07:01:28;0.20;66.30
24224;DHT22;12359;49.716;9.212;2024-01-30T07:03:54;0.20;66.40
24224;DHT22;12359;49.716;9.212;2024-01-30T07:06:20;0.20;64.90
24224;DHT22;12359;49.716;9.212;2024-01-30T07:08:46;0.20;67.80
24224;DHT22;12359;49.716;9.212;2024-01-30T07:11:21;0.20;67.60
24224;DHT22;12359;49.716;9.212;2024-01-30T07:13:48;0.20;68.60
24224;DHT22;12359;49.716;9.212;2024-01-30T07:16:14;0.20;68.20
24224;DHT22;12359;49.716;9.212;2024-01-30T07:18:40;0.20;71.60
24224;DHT22;12359;49.716;9.212;2024-01-30T07:21:06;0.30;71.30
24224;DHT22;12359;49.716;9.212;2024-01-30T07:23:31;0.40;70.70
24224;DHT22;12359;49.716;9.212;2024-01-30T07:25:59;0.40;68.40
24224;DHT22;12359;49.716;9.212;2024-01-30T07:28:25;0.40;64.20
24224;DHT22;12359;49.716;9.212;2024-01-30T07:30:50;0.50;64.50
24224;DHT22;12359;49.716;9.212;2024-01-30T07:33:16;0.50;59.60
24224;DHT22;12359;49.716;9.212;2024-01-30T07:35:42;0.50;59.20
24224;DHT22;12359;49.716;9.212;2024-01-30T07:38:07;0.50;57.80
24224;DHT22;12359;49.716;9.212;2024-01-30T07:40:33;0.50;57.40
24224;DHT22;12359;49.716;9.212;2024-01-30T07:42:59;0.60;56.40
24224;DHT22;12359;49.716;9.212;2024-01-30T07:45:26;0.70;57.00
24224;DHT22;12359;49.716;9.212;2024-01-30T07:47:53;0.70;57.70
24224;DHT22;12359;49.716;9.212;2024-01-30T07:50:18;0.80;53.80
24224;DHT22;12359;49.716;9.212;2024-01-30T07:52:44;0.80;50.00
24224;DHT22;12359;49.716;9.212;2024-01-30T07:55:10;0.80;49.90
24224;DHT22;12359;49.716;9.212;2024-01-30T07:57:38;0.80;47.30
24224;DHT22;12359;49.716;9.212;2024-01-30T08:00:04;0.80;46.00
24224;DHT22;12359;49.716;9.212;2024-01-30T08:02:31;0.90;46.10
24224;DHT22;12359;49.716;9.212;2024-01-30T08:04:56;0.90;45.90
24224;DHT22;12359;49.716;9.212;2024-01-30T08:07:22;0.90;44.90
24224;DHT22;12359;49.716;9.212;2024-01-30T08:09:48;1.00;42.60
24224;DHT22;12359;49.716;9.212;2024-01-30T08:12:13;1.00;39.10
24224;DHT22;12359;49.716;9.212;2024-01-30T08:14:39;1.00;35.70
24224;DHT22;12359;49.716;9.212;2024-01-30T08:17:06;1.00;37.20
24224;DHT22;12359;49.716;9.212;2024-01-30T08:19:33;1.00;31.30
24224;DHT22;12359;49.716;9.212;2024-01-30T08:21:58;1.10;31.10
24224;DHT22;12359;49.716;9.212;2024-01-30T08:24:24;1.10;30.00
24224;DHT22;12359;49.716;9.212;2024-01-30T08:26:50;1.20;34.90
24224;DHT22;12359;49.716;9.212;2024-01-30T08:29:15;1.30;28.10
24224;DHT22;12359;49.716;9.212;2024-01-30T08:31:41;1.30;26.00
24224;DHT22;12359;49.716;9.212;2024-01-30T08:34:07;1.50;24.60
24224;DHT22;12359;49.716;9.212;2024-01-30T08:36:32;1.80;19.00
24224;DHT22;12359;49.716;9.212;2024-01-30T08:38:58;2.10;1.00
24224;DHT22;12359;49.716;9.212;2024-01-30T08:41:24;2.50;1.00
24224;DHT22;12359;49.716;9.212;2024-01-30T08:43:49;2.80;1.00
24224;DHT22;12359;49.716;9.212;2024-01-30T08:46:18;3.00;1.00
24224;DHT22;12359;49.716;9.212;2024-01-30T08:48:44;3.00;1.00
24224;DHT22;12359;49.716;9.212;2024-01-30T08:51:10;3.30;99.90
24224;DHT22;12359;49.716;9.212;2024-01-30T08:53:36;3.30;99.90
24224;DHT22;12359;49.716;9.212;2024-01-30T08:56:03;3.30;99.90
24224;DHT22;12359;49.716;9.212;2024-01-30T08:58:29;3.30;99.90
24224;DHT22;12359;49.716;9.212;2024-01-30T09:00:54;3.20;99.90
24224;DHT22;12359;49.716;9.212;2024-01-30T09:03:20;3.20;99.90
24224;DHT22;12359;49.716;9.212;2024-01-30T09:05:46;3.00;1.00
24224;DHT22;12359;49.716;9.212;2024-01-30T09:08:12;2.90;1.00
24224;DHT22;12359;49.716;9.212;2024-01-30T09:10:37;3.10;1.00
24224;DHT22;12359;49.716;9.212;2024-01-30T09:13:03;3.20;1.00
24224;DHT22;12359;49.716;9.212;2024-01-30T09:15:29;3.50;1.00
24224;DHT22;12359;49.716;9.212;2024-01-30T09:17:54;3.70;99.90
24224;DHT22;12359;49.716;9.212;2024-01-30T09:20:20;3.80;99.90
24224;DHT22;12359;49.716;9.212;2024-01-30T09:22:47;3.60;99.90
24224;DHT22;12359;49.716;9.212;2024-01-30T09:25:14;3.70;99.90
24224;DHT22;12359;49.716;9.212;2024-01-30T09:27:39;3.50;99.90
24224;DHT22;12359;49.716;9.212;2024-01-30T09:30:06;3.50;99.90
24224;DHT22;12359;49.716;9.212;2024-01-30T09:32:32;3.60;99.90
24224;DHT22;12359;49.716;9.212;2024-01-30T09:34:57;3.40;99.90
24224;DHT22;12359;49.716;9.212;2024-01-30T09:37:23;3.60;1.00
24224;DHT22;12359;49.716;9.212;2024-01-30T09:39:48;3.70;99.90
24224;DHT22;12359;49.716;9.212;2024-01-30T09:42:27;4.00;99.90
24224;DHT22;12359;49.716;9.212;2024-01-30T09:44:54;4.20;99.90
24224;DHT22;12359;49.716;9.212;2024-01-30T09:47:20;4.60;99.90
24224;DHT22;12359;49.716;9.212;2024-01-30T09:49:46;4.60;1.00
24224;DHT22;12359;49.716;9.212;2024-01-30T09:52:12;4.60;1.00
24224;DHT22;12359;49.716;9.212;2024-01-30T09:54:38;4.60;1.00
24224;DHT22;12359;49.716;9.212;2024-01-30T09:57:04;4.60;99.10
24224;DHT22;12359;49.716;9.212;2024-01-30T09:59:30;4.60;1.00
24224;DHT22;12359;49.716;9.212;2024-01-30T10:01:57;4.70;1.00
24224;DHT22;12359;49.716;9.212;2024-01-30T10:04:23;4.70;1.00
24224;DHT22;12359;49.716;9.212;2024-01-30T10:06:48;4.80;1.00
24224;DHT22;12359;49.716;9.212;2024-01-30T10:09:14;5.00;1.00
24224;DHT22;12359;49.716;9.212;2024-01-30T10:11:40;5.20;99.90
24224;DHT22;12359;49.716;9.212;2024-01-30T10:14:06;5.40;99.90
24224;DHT22;12359;49.716;9.212;2024-01-30T10:16:31;5.20;99.90
24224;DHT22;12359;49.716;9.212;2024-01-30T10:18:57;5.40;99.90
24224;DHT22;12359;49.716;9.212;2024-01-30T10:21:23;5.30;75.50
24224;DHT22;12359;49.716;9.212;2024-01-30T10:23:49;5.20;99.90
24224;DHT22;12359;49.716;9.212;2024-01-30T10:26:16;5.40;99.90
24224;DHT22;12359;49.716;9.212;2024-01-30T10:28:43;5.60;27.00
24224;DHT22;12359;49.716;9.212;2024-01-30T10:31:08;5.90;70.60
24224;DHT22;12359;49.716;9.212;2024-01-30T10:33:34;6.40;99.90
24224;DHT22;12359;49.716;9.212;2024-01-30T10:36:05;6.80;99.90
24224;DHT22;12359;49.716;9.212;2024-01-30T10:38:32;7.20;99.90
24224;DHT22;12359;49.716;9.212;2024-01-30T10:40:59;7.40;99.90
24224;DHT22;12359;49.716;9.212;2024-01-30T10:43:41;7.50;99.90
24224;DHT22;12359;49.716;9.212;2024-01-30T10:46:11;7.30;91.60
24224;DHT22;12359;49.716;9.212;2024-01-30T10:48:43;7.00;99.90
24224;DHT22;12359;49.716;9.212;2024-01-30T10:51:11;6.90;1.00
24224;DHT22;12359;49.716;9.212;2024-01-30T10:53:38;6.90;1.00
24224;DHT22;12359;49.716;9.212;2024-01-30T10:56:05;6.50;6.70
24224;DHT22;12359;49.716;9.212;2024-01-30T10:58:31;6.40;50.10
24224;DHT22;12359;49.716;9.212;2024-01-30T11:00:57;6.40;99.90
24224;DHT22;12359;49.716;9.212;2024-01-30T11:03:24;6.30;1.00
24224;DHT22;12359;49.716;9.212;2024-01-30T11:05:50;6.20;20.30
24224;DHT22;12359;49.716;9.212;2024-01-30T11:08:25;6.30;99.90
24224;DHT22;12359;49.716;9.212;2024-01-30T11:10:57;6.20;99.90
24224;DHT22;12359;49.716;9.212;2024-01-30T11:13:29;6.30;99.90
24224;DHT22;12359;49.716;9.212;2024-01-30T11:15:55;6.30;99.90
24224;DHT22;12359;49.716;9.212;2024-01-30T11:18:29;6.10;99.90
24224;DHT22;12359;49.716;9.212;2024-01-30T11:20:59;6.30;99.90
24224;DHT22;12359;49.716;9.212;2024-01-30T11:23:28;6.20;1.00
24224;DHT22;12359;49.716;9.212;2024-01-30T11:25:54;6.20;1.00
24224;DHT22;12359;49.716;9.212;2024-01-30T11:28:23;6.40;1.00
24224;DHT22;12359;49.716;9.212;2024-01-30T11:30:49;6.40;99.90
24224;DHT22;12359;49.716;9.212;2024-01-30T11:33:29;6.60;1.00
24224;DHT22;12359;49.716;9.212;2024-01-30T11:35:57;6.70;3.00
24224;DHT22;12359;49.716;9.212;2024-01-30T11:38:26;6.90;1.00
24224;DHT22;12359;49.716;9.212;2024-01-30T11:40:54;6.90;1.00
24224;DHT22;12359;49.716;9.212;2024-01-30T11:43:20;7.00;99.90
24224;DHT22;12359;49.716;9.212;2024-01-30T11:45:45;7.00;91.30
24224;DHT22;12359;49.716;9.212;2024-01-30T11:48:12;7.00;90.90
24224;DHT22;12359;49.716;9.212;2024-01-30T11:50:39;7.00;99.90
24224;DHT22;12359;49.716;9.212;2024-01-30T11:53:06;7.00;99.90
24224;DHT22;12359;49.716;9.212;2024-01-30T11:55:32;6.80;1.00
24224;DHT22;12359;49.716;9.212;2024-01-30T11:57:58;6.90;29.40
24224;DHT22;12359;49.716;9.212;2024-01-30T12:00:24;6.80;1.00
24224;DHT22;12359;49.716;9.212;2024-01-30T12:02:54;6.80;99.90
24224;DHT22;12359;49.716;9.212;2024-01-30T12:05:25;7.00;99.90
24224;DHT22;12359;49.716;9.212;2024-01-30T12:07:51;7.00;1.00
24224;DHT22;12359;49.716;9.212;2024-01-30T12:10:16;7.10;1.00
24224;DHT22;12359;49.716;9.212;2024-01-30T12:12:46;7.30;99.90
24224;DHT22;12359;49.716;9.212;2024-01-30T12:15:12;7.60;99.90
24224;DHT22;12359;49.716;9.212;2024-01-30T12:17:38;7.60;59.30
24224;DHT22;12359;49.716;9.212;2024-01-30T12:22:42;7.70;1.00
24224;DHT22;12359;49.716;9.212;2024-01-30T12:25:20;7.80;1.00
24224;DHT22;12359;49.716;9.212;2024-01-30T12:27:49;7.80;87.40
24224;DHT22;12359;49.716;9.212;2024-01-30T12:30:19;7.80;99.90
24224;DHT22;12359;49.716;9.212;2024-01-30T12:32:46;7.80;99.90
24224;DHT22;12359;49.716;9.212;2024-01-30T12:35:14;7.70;99.90
24224;DHT22;12359;49.716;9.212;2024-01-30T12:37:40;7.70;99.90
24224;DHT22;12359;49.716;9.212;2024-01-30T12:40:11;7.70;99.90
24224;DHT22;12359;49.716;9.212;2024-01-30T12:42:39;7.70;8.10
24224;DHT22;12359;49.716;9.212;2024-01-30T12:45:05;7.70;99.90
24224;DHT22;12359;49.716;9.212;2024-01-30T12:47:31;7.70;99.90
24224;DHT22;12359;49.716;9.212;2024-01-30T12:49:57;7.90;99.90
24224;DHT22;12359;49.716;9.212;2024-01-30T12:52:23;7.90;1.00
24224;DHT22;12359;49.716;9.212;2024-01-30T12:54:49;7.90;99.90
24224;DHT22;12359;49.716;9.212;2024-01-30T12:57:15;7.90;99.90
24224;DHT22;12359;49.716;9.212;2024-01-30T12:59:42;7.90;99.90
24224;DHT22;12359;49.716;9.212;2024-01-30T13:02:07;7.90;99.90
24224;DHT22;12359;49.716;9.212;2024-01-30T13:04:34;7.90;99.90
24224;DHT22;12359;49.716;9.212;2024-01-30T13:07:00;7.90;99.90
24224;DHT22;12359;49.716;9.212;2024-01-30T13:09:26;8.00;99.90
24224;DHT22;12359;49.716;9.212;2024-01-30T13:11:52;8.20;1.00
24224;DHT22;12359;49.716;9.212;2024-01-30T13:14:18;8.30;1.00
24224;DHT22;12359;49.716;9.212;2024-01-30T13:16:44;8.40;1.00
24224;DHT22;12359;49.716;9.212;2024-01-30T13:19:10;8.50;99.90
24224;DHT22;12359;49.716;9.212;2024-01-30T13:21:36;8.50;24.50
24224;DHT22;12359;49.716;9.212;2024-01-30T13:24:02;8.50;99.90
24224;DHT22;12359;49.716;9.212;2024-01-30T13:26:28;8.60;99.90
24224;DHT22;12359;49.716;9.212;2024-01-30T13:28:53;8.60;99.90
24224;DHT22;12359;49.716;9.212;2024-01-30T13:31:19;8.60;99.90
24224;DHT22;12359;49.716;9.212;2024-01-30T13:33:45;8.60;1.00
24224;DHT22;12359;49.716;9.212;2024-01-30T13:36:11;8.70;1.00
24224;DHT22;12359;49.716;9.212;2024-01-30T13:38:37;8.70;1.00
24224;DHT22;12359;49.716;9.212;2024-01-30T13:41:03;8.70;64.70
24224;DHT22;12359;49.716;9.212;2024-01-30T13:43:29;8.60;1.00
24224;DHT22;12359;49.716;9.212;2024-01-30T13:45:55;8.60;62.90
24224;DHT22;12359;49.716;9.212;2024-01-30T13:48:22;8.60;99.90
24224;DHT22;12359;49.716;9.212;2024-01-30T13:50:48;8.60;99.90
24224;DHT22;12359;49.716;9.212;2024-01-30T13:53:13;8.50;99.90
24224;DHT22;12359;49.716;9.212;2024-01-30T13:55:39;8.50;1.00
24224;DHT22;12359;49.716;9.212;2024-01-30T13:58:05;8.50;99.90
24224;DHT22;12359;49.716;9.212;2024-01-30T14:00:31;8.50;99.90
24224;DHT22;12359;49.716;9.212;2024-01-30T14:02:57;8.50;1.00
24224;DHT22;12359;49.716;9.212;2024-01-30T14:05:24;8.60;1.00
24224;DHT22;12359;49.716;9.212;2024-01-30T14:07:51;8.50;99.90
24224;DHT22;12359;49.716;9.212;2024-01-30T14:10:17;8.60;99.90
24224;DHT22;12359;49.716;9.212;2024-01-30T14:12:43;8.60;1.00
24224;DHT22;12359;49.716;9.212;2024-01-30T14:15:10;8.60;99.90
24224;DHT22;12359;49.716;9.212;2024-01-30T14:17:36;8.60;1.00
24224;DHT22;12359;49.716;9.212;2024-01-30T14:20:05;8.60;21.50
24224;DHT22;12359;49.716;9.212;2024-01-30T14:22:33;8.80;1.00
24224;DHT22;12359;49.716;9.212;2024-01-30T14:25:00;8.80;1.00
24224;DHT22;12359;49.716;9.212;2024-01-30T14:27:27;8.80;25.10
24224;DHT22;12359;49.716;9.212;2024-01-30T14:29:53;8.90;99.90
24224;DHT22;12359;49.716;9.212;2024-01-30T14:32:18;8.90;99.90
24224;DHT22;12359;49.716;9.212;2024-01-30T14:34:44;8.80;99.90
24224;DHT22;12359;49.716;9.212;2024-01-30T14:37:10;8.80;99.90
24224;DHT22;12359;49.716;9.212;2024-01-30T14:39:36;8.70;99.90
24224;DHT22;12359;49.716;9.212;2024-01-30T14:42:03;8.60;99.90
24224;DHT22;12359;49.716;9.212;2024-01-30T14:44:29;8.60;52.90
24224;DHT22;12359;49.716;9.212;2024-01-30T14:46:56;8.60;99.90
24224;DHT22;12359;49.716;9.212;2024-01-30T14:49:22;8.60;99.90
24224;DHT22;12359;49.716;9.212;2024-01-30T14:51:47;8.60;1.00
24224;DHT22;12359;49.716;9.212;2024-01-30T14:54:13;8.50;99.90
24224;DHT22;12359;49.716;9.212;2024-01-30T14:56:39;8.40;99.90
24224;DHT22;12359;49.716;9.212;2024-01-30T14:59:05;8.40;1.00
24224;DHT22;12359;49.716;9.212;2024-01-30T15:01:31;8.40;99.90
24224;DHT22;12359;49.716;9.212;2024-01-30T15:03:57;8.40;99.90
24224;DHT22;12359;49.716;9.212;2024-01-30T15:06:23;8.40;99.90
24224;DHT22;12359;49.716;9.212;2024-01-30T15:08:53;8.40;1.00
24224;DHT22;12359;49.716;9.212;2024-01-30T15:11:19;8.30;1.00
24224;DHT22;12359;49.716;9.212;2024-01-30T15:13:44;8.30;99.90
24224;DHT22;12359;49.716;9.212;2024-01-30T15:16:10;8.30;99.90
24224;DHT22;12359;49.716;9.212;2024-01-30T15:18:36;8.20;21.20
24224;DHT22;12359;49.716;9.212;2024-01-30T15:21:02;8.20;99.90
24224;DHT22;12359;49.716;9.212;2024-01-30T15:23:27;8.20;99.90
24224;DHT22;12359;49.716;9.212;2024-01-30T15:25:53;8.20;99.90
24224;DHT22;12359;49.716;9.212;2024-01-30T15:28:22;8.10;99.90
24224;DHT22;12359;49.716;9.212;2024-01-30T15:30:51;8.10;1.00
24224;DHT22;12359;49.716;9.212;2024-01-30T15:33:16;8.10;1.00
24224;DHT22;12359;49.716;9.212;2024-01-30T15:35:43;8.10;1.00
24224;DHT22;12359;49.716;9.212;2024-01-30T15:38:08;8.00;20.70
24224;DHT22;12359;49.716;9.212;2024-01-30T15:40:34;8.00;51.40
24224;DHT22;12359;49.716;9.212;2024-01-30T15:43:00;8.00;58.60
24224;DHT22;12359;49.716;9.212;2024-01-30T15:45:26;8.00;70.60
24224;DHT22;12359;49.716;9.212;2024-01-30T15:47:52;8.00;99.90